Phillipsburg, Missouri
Current Conditions -  °F | °C
As of 8:35 PM on Saturday 22 Nov 2014 (Local Time) from KH21 Reporting Station
Overcast Overcast  
Wind Chill: 12°   Ceiling: 1200
Heat Index: 12°   Visibility: 10mi
Dew Point: 10°   Wind: 14mph
Humidity: 88%   Direction: 150°SSE
Pressure: 29.85"   Gusts: 22mph
Location:  37.55°N, 92.78°W
Report Text: KH21 230235Z AUTO 15012G19KT 10SM OVC012 12/10 A2985 RMK AO2
Loading
Personal Weather Stations






























Interactive Weather Map New forecast layout! Learn more

10-Day Weather Forecast

Advertisements
Track Severe Weather on mobile